sensor_id;sensor_type;location;lat;lon;timestamp;P1;durP1;ratioP1;P2;durP2;ratioP2
70532;SDS011;58088;51.186;17.130;2023-07-20T00:01:27;7.20;;;2.00;;
70532;SDS011;58088;51.186;17.130;2023-07-20T00:03:53;5.00;;;2.00;;
70532;SDS011;58088;51.186;17.130;2023-07-20T00:06:22;5.20;;;1.90;;
70532;SDS011;58088;51.186;17.130;2023-07-20T00:08:51;4.80;;;1.90;;
70532;SDS011;58088;51.186;17.130;2023-07-20T00:11:17;4.30;;;1.90;;
70532;SDS011;58088;51.186;17.130;2023-07-20T00:13:44;5.90;;;1.80;;
70532;SDS011;58088;51.186;17.130;2023-07-20T00:16:10;5.80;;;1.80;;
70532;SDS011;58088;51.186;17.130;2023-07-20T00:18:36;6.20;;;2.20;;
70532;SDS011;58088;51.186;17.130;2023-07-20T00:21:02;6.60;;;1.80;;
70532;SDS011;58088;51.186;17.130;2023-07-20T00:23:29;4.70;;;1.70;;
70532;SDS011;58088;51.186;17.130;2023-07-20T00:25:55;5.40;;;1.90;;
70532;SDS011;58088;51.186;17.130;2023-07-20T00:28:22;5.50;;;2.00;;
70532;SDS011;58088;51.186;17.130;2023-07-20T00:30:51;5.70;;;1.80;;
70532;SDS011;58088;51.186;17.130;2023-07-20T00:33:18;6.40;;;2.00;;
70532;SDS011;58088;51.186;17.130;2023-07-20T00:35:44;6.90;;;2.00;;
70532;SDS011;58088;51.186;17.130;2023-07-20T00:38:11;6.30;;;2.10;;
70532;SDS011;58088;51.186;17.130;2023-07-20T00:40:38;7.70;;;2.40;;
70532;SDS011;58088;51.186;17.130;2023-07-20T00:43:06;6.60;;;2.30;;
70532;SDS011;58088;51.186;17.130;2023-07-20T00:45:34;6.70;;;2.30;;
70532;SDS011;58088;51.186;17.130;2023-07-20T00:48:04;6.50;;;1.70;;
70532;SDS011;58088;51.186;17.130;2023-07-20T00:50:33;5.00;;;2.10;;
70532;SDS011;58088;51.186;17.130;2023-07-20T00:53:03;7.30;;;2.60;;
70532;SDS011;58088;51.186;17.130;2023-07-20T00:55:34;5.30;;;2.30;;
70532;SDS011;58088;51.186;17.130;2023-07-20T00:58:02;6.30;;;2.30;;
70532;SDS011;58088;51.186;17.130;2023-07-20T01:00:30;6.70;;;2.50;;
70532;SDS011;58088;51.186;17.130;2023-07-20T01:02:57;9.20;;;2.70;;
70532;SDS011;58088;51.186;17.130;2023-07-20T01:05:33;6.70;;;2.50;;
70532;SDS011;58088;51.186;17.130;2023-07-20T01:08:21;6.70;;;2.50;;
70532;SDS011;58088;51.186;17.130;2023-07-20T01:11:08;5.20;;;2.40;;
70532;SDS011;58088;51.186;17.130;2023-07-20T01:13:39;8.00;;;2.40;;
70532;SDS011;58088;51.186;17.130;2023-07-20T01:16:06;5.70;;;2.20;;
70532;SDS011;58088;51.186;17.130;2023-07-20T01:18:32;7.00;;;2.60;;
70532;SDS011;58088;51.186;17.130;2023-07-20T01:21:01;7.50;;;2.80;;
70532;SDS011;58088;51.186;17.130;2023-07-20T01:32:54;6.30;;;2.70;;
70532;SDS011;58088;51.186;17.130;2023-07-20T01:35:25;6.40;;;3.10;;
70532;SDS011;58088;51.186;17.130;2023-07-20T01:37:54;7.20;;;3.00;;
70532;SDS011;58088;51.186;17.130;2023-07-20T01:40:24;6.50;;;3.00;;
70532;SDS011;58088;51.186;17.130;2023-07-20T01:42:52;6.90;;;2.80;;
70532;SDS011;58088;51.186;17.130;2023-07-20T01:45:19;7.30;;;3.30;;
70532;SDS011;58088;51.186;17.130;2023-07-20T01:47:45;6.70;;;2.70;;
70532;SDS011;58088;51.186;17.130;2023-07-20T01:50:11;7.40;;;3.10;;
70532;SDS011;58088;51.186;17.130;2023-07-20T01:52:38;8.60;;;3.00;;
70532;SDS011;58088;51.186;17.130;2023-07-20T01:55:04;7.00;;;3.00;;
70532;SDS011;58088;51.186;17.130;2023-07-20T01:57:31;7.20;;;3.50;;
70532;SDS011;58088;51.186;17.130;2023-07-20T01:59:58;6.80;;;3.40;;
70532;SDS011;58088;51.186;17.130;2023-07-20T02:02:26;10.50;;;3.50;;
70532;SDS011;58088;51.186;17.130;2023-07-20T02:05:06;6.20;;;3.20;;
70532;SDS011;58088;51.186;17.130;2023-07-20T02:07:33;9.80;;;3.50;;
70532;SDS011;58088;51.186;17.130;2023-07-20T02:09:59;9.10;;;2.90;;
70532;SDS011;58088;51.186;17.130;2023-07-20T02:12:25;8.20;;;3.30;;
70532;SDS011;58088;51.186;17.130;2023-07-20T02:14:51;6.50;;;3.30;;
70532;SDS011;58088;51.186;17.130;2023-07-20T02:17:17;7.60;;;3.10;;
70532;SDS011;58088;51.186;17.130;2023-07-20T02:19:43;7.70;;;3.50;;
70532;SDS011;58088;51.186;17.130;2023-07-20T02:22:09;7.80;;;3.60;;
70532;SDS011;58088;51.186;17.130;2023-07-20T02:24:35;8.30;;;3.40;;
70532;SDS011;58088;51.186;17.130;2023-07-20T02:27:01;8.80;;;3.50;;
70532;SDS011;58088;51.186;17.130;2023-07-20T02:29:28;7.20;;;3.50;;
70532;SDS011;58088;51.186;17.130;2023-07-20T02:31:54;7.00;;;3.30;;
70532;SDS011;58088;51.186;17.130;2023-07-20T02:34:20;8.00;;;3.30;;
70532;SDS011;58088;51.186;17.130;2023-07-20T02:36:46;7.40;;;3.60;;
70532;SDS011;58088;51.186;17.130;2023-07-20T02:39:12;5.90;;;3.10;;
70532;SDS011;58088;51.186;17.130;2023-07-20T02:41:38;5.90;;;3.10;;
70532;SDS011;58088;51.186;17.130;2023-07-20T02:44:04;7.70;;;3.40;;
70532;SDS011;58088;51.186;17.130;2023-07-20T02:46:30;7.10;;;3.60;;
70532;SDS011;58088;51.186;17.130;2023-07-20T02:48:57;6.90;;;3.50;;
70532;SDS011;58088;51.186;17.130;2023-07-20T02:51:24;11.10;;;3.70;;
70532;SDS011;58088;51.186;17.130;2023-07-20T02:53:50;6.90;;;3.50;;
70532;SDS011;58088;51.186;17.130;2023-07-20T02:56:16;7.30;;;3.40;;
70532;SDS011;58088;51.186;17.130;2023-07-20T02:58:43;8.70;;;3.50;;
70532;SDS011;58088;51.186;17.130;2023-07-20T03:01:11;7.40;;;3.30;;
70532;SDS011;58088;51.186;17.130;2023-07-20T03:03:38;7.30;;;3.70;;
70532;SDS011;58088;51.186;17.130;2023-07-20T03:06:05;6.80;;;3.40;;
70532;SDS011;58088;51.186;17.130;2023-07-20T03:08:31;7.60;;;4.00;;
70532;SDS011;58088;51.186;17.130;2023-07-20T03:10:58;8.80;;;4.10;;
70532;SDS011;58088;51.186;17.130;2023-07-20T03:13:24;7.50;;;3.40;;
70532;SDS011;58088;51.186;17.130;2023-07-20T03:15:54;7.70;;;3.70;;
70532;SDS011;58088;51.186;17.130;2023-07-20T03:18:22;9.20;;;4.00;;
70532;SDS011;58088;51.186;17.130;2023-07-20T03:20:48;7.50;;;3.70;;
70532;SDS011;58088;51.186;17.130;2023-07-20T03:23:14;7.30;;;3.90;;
70532;SDS011;58088;51.186;17.130;2023-07-20T03:25:41;8.00;;;3.40;;
70532;SDS011;58088;51.186;17.130;2023-07-20T03:28:07;7.70;;;4.30;;
70532;SDS011;58088;51.186;17.130;2023-07-20T03:30:34;12.20;;;3.90;;
70532;SDS011;58088;51.186;17.130;2023-07-20T03:33:01;7.50;;;3.20;;
70532;SDS011;58088;51.186;17.130;2023-07-20T03:35:29;8.30;;;3.60;;
70532;SDS011;58088;51.186;17.130;2023-07-20T03:37:57;6.80;;;3.20;;
70532;SDS011;58088;51.186;17.130;2023-07-20T03:40:23;8.00;;;3.30;;
70532;SDS011;58088;51.186;17.130;2023-07-20T03:42:51;6.50;;;2.90;;
70532;SDS011;58088;51.186;17.130;2023-07-20T03:45:17;9.80;;;3.20;;
70532;SDS011;58088;51.186;17.130;2023-07-20T03:47:43;9.10;;;3.40;;
70532;SDS011;58088;51.186;17.130;2023-07-20T03:50:10;6.30;;;3.10;;
70532;SDS011;58088;51.186;17.130;2023-07-20T03:52:37;7.40;;;3.30;;
70532;SDS011;58088;51.186;17.130;2023-07-20T03:55:03;8.40;;;3.30;;
70532;SDS011;58088;51.186;17.130;2023-07-20T03:57:29;7.70;;;3.00;;
70532;SDS011;58088;51.186;17.130;2023-07-20T03:59:58;8.00;;;3.50;;
70532;SDS011;58088;51.186;17.130;2023-07-20T04:02:24;6.30;;;2.90;;
70532;SDS011;58088;51.186;17.130;2023-07-20T04:04:51;7.60;;;3.20;;
70532;SDS011;58088;51.186;17.130;2023-07-20T04:07:17;7.50;;;2.70;;
70532;SDS011;58088;51.186;17.130;2023-07-20T04:09:44;7.80;;;3.00;;
70532;SDS011;58088;51.186;17.130;2023-07-20T04:12:10;9.20;;;3.50;;
70532;SDS011;58088;51.186;17.130;2023-07-20T04:14:36;7.20;;;3.30;;
70532;SDS011;58088;51.186;17.130;2023-07-20T04:17:03;6.40;;;3.20;;
70532;SDS011;58088;51.186;17.130;2023-07-20T04:19:30;7.20;;;3.30;;
70532;SDS011;58088;51.186;17.130;2023-07-20T04:21:56;10.00;;;3.60;;
70532;SDS011;58088;51.186;17.130;2023-07-20T04:24:23;7.30;;;3.30;;
70532;SDS011;58088;51.186;17.130;2023-07-20T04:26:49;8.70;;;3.70;;
70532;SDS011;58088;51.186;17.130;2023-07-20T04:29:15;7.00;;;3.20;;
70532;SDS011;58088;51.186;17.130;2023-07-20T04:31:43;7.60;;;3.20;;
70532;SDS011;58088;51.186;17.130;2023-07-20T04:34:10;7.20;;;2.90;;
70532;SDS011;58088;51.186;17.130;2023-07-20T04:36:38;9.60;;;3.40;;
70532;SDS011;58088;51.186;17.130;2023-07-20T04:39:05;6.60;;;2.90;;
70532;SDS011;58088;51.186;17.130;2023-07-20T04:41:37;9.30;;;3.50;;
70532;SDS011;58088;51.186;17.130;2023-07-20T04:44:04;7.00;;;2.90;;
70532;SDS011;58088;51.186;17.130;2023-07-20T04:46:31;7.60;;;3.60;;
70532;SDS011;58088;51.186;17.130;2023-07-20T04:48:58;7.40;;;3.40;;
70532;SDS011;58088;51.186;17.130;2023-07-20T04:51:26;7.00;;;3.20;;
70532;SDS011;58088;51.186;17.130;2023-07-20T04:53:54;8.20;;;3.20;;
70532;SDS011;58088;51.186;17.130;2023-07-20T04:56:21;8.30;;;3.40;;
70532;SDS011;58088;51.186;17.130;2023-07-20T04:58:49;6.60;;;3.50;;
70532;SDS011;58088;51.186;17.130;2023-07-20T05:01:16;9.10;;;3.30;;
70532;SDS011;58088;51.186;17.130;2023-07-20T05:03:43;7.60;;;3.40;;
70532;SDS011;58088;51.186;17.130;2023-07-20T05:06:09;7.90;;;3.50;;
70532;SDS011;58088;51.186;17.130;2023-07-20T05:08:36;7.40;;;3.50;;
70532;SDS011;58088;51.186;17.130;2023-07-20T05:11:02;6.00;;;3.10;;
70532;SDS011;58088;51.186;17.130;2023-07-20T05:13:28;6.90;;;3.70;;
70532;SDS011;58088;51.186;17.130;2023-07-20T05:15:54;6.90;;;3.60;;
70532;SDS011;58088;51.186;17.130;2023-07-20T05:18:21;11.00;;;4.00;;
70532;SDS011;58088;51.186;17.130;2023-07-20T05:20:50;7.00;;;3.60;;
70532;SDS011;58088;51.186;17.130;2023-07-20T05:23:20;8.40;;;3.50;;
70532;SDS011;58088;51.186;17.130;2023-07-20T05:25:47;8.30;;;3.90;;
70532;SDS011;58088;51.186;17.130;2023-07-20T05:28:19;8.70;;;3.60;;
70532;SDS011;58088;51.186;17.130;2023-07-20T05:30:46;9.00;;;3.70;;
70532;SDS011;58088;51.186;17.130;2023-07-20T05:33:12;7.70;;;3.60;;
70532;SDS011;58088;51.186;17.130;2023-07-20T05:35:38;10.10;;;3.70;;
70532;SDS011;58088;51.186;17.130;2023-07-20T05:38:04;7.20;;;3.90;;
70532;SDS011;58088;51.186;17.130;2023-07-20T05:40:32;7.60;;;3.60;;
70532;SDS011;58088;51.186;17.130;2023-07-20T05:42:58;7.60;;;3.60;;
70532;SDS011;58088;51.186;17.130;2023-07-20T05:45:26;7.80;;;3.40;;
70532;SDS011;58088;51.186;17.130;2023-07-20T05:47:52;7.90;;;4.00;;
70532;SDS011;58088;51.186;17.130;2023-07-20T05:50:18;8.90;;;3.60;;
70532;SDS011;58088;51.186;17.130;2023-07-20T05:52:44;9.40;;;3.90;;
70532;SDS011;58088;51.186;17.130;2023-07-20T05:55:10;7.70;;;3.70;;
70532;SDS011;58088;51.186;17.130;2023-07-20T05:57:37;11.00;;;4.20;;
70532;SDS011;58088;51.186;17.130;2023-07-20T06:00:08;8.10;;;4.40;;
70532;SDS011;58088;51.186;17.130;2023-07-20T06:02:41;9.70;;;4.00;;
70532;SDS011;58088;51.186;17.130;2023-07-20T06:05:08;8.60;;;4.50;;
70532;SDS011;58088;51.186;17.130;2023-07-20T06:07:38;8.50;;;3.90;;
70532;SDS011;58088;51.186;17.130;2023-07-20T06:10:05;8.10;;;4.10;;
70532;SDS011;58088;51.186;17.130;2023-07-20T06:12:32;10.50;;;4.20;;
70532;SDS011;58088;51.186;17.130;2023-07-20T06:15:12;9.40;;;4.10;;
70532;SDS011;58088;51.186;17.130;2023-07-20T06:17:54;6.70;;;4.10;;
70532;SDS011;58088;51.186;17.130;2023-07-20T06:20:24;8.30;;;4.00;;
70532;SDS011;58088;51.186;17.130;2023-07-20T06:22:50;9.30;;;4.50;;
70532;SDS011;58088;51.186;17.130;2023-07-20T06:25:16;9.20;;;4.30;;
70532;SDS011;58088;51.186;17.130;2023-07-20T06:27:43;8.40;;;4.90;;
70532;SDS011;58088;51.186;17.130;2023-07-20T06:30:10;7.30;;;4.60;;
70532;SDS011;58088;51.186;17.130;2023-07-20T06:32:38;10.30;;;4.20;;
70532;SDS011;58088;51.186;17.130;2023-07-20T06:35:05;9.40;;;4.30;;
70532;SDS011;58088;51.186;17.130;2023-07-20T06:37:35;10.10;;;4.70;;
70532;SDS011;58088;51.186;17.130;2023-07-20T06:40:02;8.80;;;4.70;;
70532;SDS011;58088;51.186;17.130;2023-07-20T06:42:30;8.00;;;4.90;;
70532;SDS011;58088;51.186;17.130;2023-07-20T06:44:57;8.20;;;4.30;;
70532;SDS011;58088;51.186;17.130;2023-07-20T06:47:24;7.90;;;4.70;;
70532;SDS011;58088;51.186;17.130;2023-07-20T06:49:50;8.70;;;4.60;;
70532;SDS011;58088;51.186;17.130;2023-07-20T06:52:17;8.80;;;4.60;;
70532;SDS011;58088;51.186;17.130;2023-07-20T06:54:43;9.10;;;5.10;;
70532;SDS011;58088;51.186;17.130;2023-07-20T06:57:09;8.80;;;5.00;;
70532;SDS011;58088;51.186;17.130;2023-07-20T06:59:35;7.70;;;4.40;;
70532;SDS011;58088;51.186;17.130;2023-07-20T07:02:01;8.40;;;5.00;;
70532;SDS011;58088;51.186;17.130;2023-07-20T07:04:27;7.50;;;4.60;;
70532;SDS011;58088;51.186;17.130;2023-07-20T07:06:54;10.40;;;5.20;;
70532;SDS011;58088;51.186;17.130;2023-07-20T07:09:20;8.90;;;5.50;;
70532;SDS011;58088;51.186;17.130;2023-07-20T07:11:46;8.20;;;4.80;;
70532;SDS011;58088;51.186;17.130;2023-07-20T07:14:13;11.30;;;5.30;;
70532;SDS011;58088;51.186;17.130;2023-07-20T07:16:39;8.50;;;4.90;;
70532;SDS011;58088;51.186;17.130;2023-07-20T07:19:05;9.10;;;5.20;;
70532;SDS011;58088;51.186;17.130;2023-07-20T07:21:34;9.30;;;4.30;;
70532;SDS011;58088;51.186;17.130;2023-07-20T07:24:00;8.00;;;4.80;;
70532;SDS011;58088;51.186;17.130;2023-07-20T07:26:26;6.10;;;3.50;;
70532;SDS011;58088;51.186;17.130;2023-07-20T07:28:52;9.40;;;4.80;;
70532;SDS011;58088;51.186;17.130;2023-07-20T07:31:18;7.70;;;4.00;;
70532;SDS011;58088;51.186;17.130;2023-07-20T07:33:45;9.10;;;4.50;;
70532;SDS011;58088;51.186;17.130;2023-07-20T07:36:11;8.80;;;4.50;;
70532;SDS011;58088;51.186;17.130;2023-07-20T07:38:37;7.90;;;4.30;;
70532;SDS011;58088;51.186;17.130;2023-07-20T07:41:04;9.30;;;4.20;;
70532;SDS011;58088;51.186;17.130;2023-07-20T07:43:30;6.60;;;3.90;;
70532;SDS011;58088;51.186;17.130;2023-07-20T07:45:56;7.00;;;4.40;;
70532;SDS011;58088;51.186;17.130;2023-07-20T07:48:22;6.90;;;4.10;;
70532;SDS011;58088;51.186;17.130;2023-07-20T07:50:51;6.90;;;4.20;;
70532;SDS011;58088;51.186;17.130;2023-07-20T07:53:17;7.00;;;3.80;;
70532;SDS011;58088;51.186;17.130;2023-07-20T07:55:44;9.50;;;3.90;;
70532;SDS011;58088;51.186;17.130;2023-07-20T07:58:10;7.10;;;4.00;;
70532;SDS011;58088;51.186;17.130;2023-07-20T08:00:36;5.80;;;3.80;;
70532;SDS011;58088;51.186;17.130;2023-07-20T08:03:02;8.90;;;4.30;;
70532;SDS011;58088;51.186;17.130;2023-07-20T08:05:28;7.70;;;3.70;;
70532;SDS011;58088;51.186;17.130;2023-07-20T08:07:55;8.50;;;4.00;;
70532;SDS011;58088;51.186;17.130;2023-07-20T08:10:21;6.60;;;3.70;;
70532;SDS011;58088;51.186;17.130;2023-07-20T08:12:48;8.00;;;3.30;;
70532;SDS011;58088;51.186;17.130;2023-07-20T08:15:14;7.00;;;3.70;;
70532;SDS011;58088;51.186;17.130;2023-07-20T08:17:41;5.40;;;2.90;;
70532;SDS011;58088;51.186;17.130;2023-07-20T08:20:10;6.50;;;3.30;;
70532;SDS011;58088;51.186;17.130;2023-07-20T08:22:39;5.90;;;3.00;;
70532;SDS011;58088;51.186;17.130;2023-07-20T08:25:06;5.90;;;3.20;;
70532;SDS011;58088;51.186;17.130;2023-07-20T08:27:33;6.90;;;3.30;;
70532;SDS011;58088;51.186;17.130;2023-07-20T08:29:59;8.40;;;3.40;;
70532;SDS011;58088;51.186;17.130;2023-07-20T08:32:26;4.80;;;2.90;;
70532;SDS011;58088;51.186;17.130;2023-07-20T08:34:52;8.20;;;3.10;;
70532;SDS011;58088;51.186;17.130;2023-07-20T08:37:19;6.20;;;3.10;;
70532;SDS011;58088;51.186;17.130;2023-07-20T08:39:45;6.90;;;3.60;;
70532;SDS011;58088;51.186;17.130;2023-07-20T08:42:12;5.30;;;2.20;;
70532;SDS011;58088;51.186;17.130;2023-07-20T08:44:41;5.00;;;2.20;;
70532;SDS011;58088;51.186;17.130;2023-07-20T08:47:08;5.10;;;2.40;;
70532;SDS011;58088;51.186;17.130;2023-07-20T08:49:36;6.20;;;2.30;;
70532;SDS011;58088;51.186;17.130;2023-07-20T08:52:05;5.10;;;2.30;;
70532;SDS011;58088;51.186;17.130;2023-07-20T08:54:33;3.50;;;1.70;;
70532;SDS011;58088;51.186;17.130;2023-07-20T08:57:03;3.00;;;1.80;;
70532;SDS011;58088;51.186;17.130;2023-07-20T08:59:31;5.50;;;2.40;;
70532;SDS011;58088;51.186;17.130;2023-07-20T09:01:59;4.10;;;2.10;;
70532;SDS011;58088;51.186;17.130;2023-07-20T09:04:26;3.50;;;1.80;;
70532;SDS011;58088;51.186;17.130;2023-07-20T09:06:53;3.80;;;1.90;;
70532;SDS011;58088;51.186;17.130;2023-07-20T09:09:19;5.80;;;2.60;;
70532;SDS011;58088;51.186;17.130;2023-07-20T09:11:51;6.20;;;2.40;;
70532;SDS011;58088;51.186;17.130;2023-07-20T09:14:17;4.80;;;2.00;;
70532;SDS011;58088;51.186;17.130;2023-07-20T09:19:17;5.90;;;2.60;;
70532;SDS011;58088;51.186;17.130;2023-07-20T09:21:45;4.20;;;2.20;;
70532;SDS011;58088;51.186;17.130;2023-07-20T09:24:14;2.90;;;2.00;;
70532;SDS011;58088;51.186;17.130;2023-07-20T09:26:42;4.70;;;2.30;;
70532;SDS011;58088;51.186;17.130;2023-07-20T09:29:10;3.80;;;2.30;;
70532;SDS011;58088;51.186;17.130;2023-07-20T09:31:37;4.30;;;2.30;;
70532;SDS011;58088;51.186;17.130;2023-07-20T09:34:04;3.50;;;1.90;;
70532;SDS011;58088;51.186;17.130;2023-07-20T09:36:34;4.50;;;2.10;;
70532;SDS011;58088;51.186;17.130;2023-07-20T09:39:03;3.20;;;1.80;;
70532;SDS011;58088;51.186;17.130;2023-07-20T09:41:42;3.40;;;1.70;;
70532;SDS011;58088;51.186;17.130;2023-07-20T09:44:10;3.30;;;1.70;;
70532;SDS011;58088;51.186;17.130;2023-07-20T09:46:49;5.00;;;2.00;;
70532;SDS011;58088;51.186;17.130;2023-07-20T09:49:19;3.70;;;1.90;;
70532;SDS011;58088;51.186;17.130;2023-07-20T09:51:46;3.40;;;1.90;;
70532;SDS011;58088;51.186;17.130;2023-07-20T09:54:13;3.30;;;1.90;;
70532;SDS011;58088;51.186;17.130;2023-07-20T09:56:40;2.70;;;1.80;;
70532;SDS011;58088;51.186;17.130;2023-07-20T09:59:08;3.40;;;1.80;;
70532;SDS011;58088;51.186;17.130;2023-07-20T10:01:34;3.10;;;1.40;;
70532;SDS011;58088;51.186;17.130;2023-07-20T10:04:05;2.70;;;1.60;;
70532;SDS011;58088;51.186;17.130;2023-07-20T10:06:35;3.90;;;1.20;;
70532;SDS011;58088;51.186;17.130;2023-07-20T10:09:06;1.80;;;1.10;;
70532;SDS011;58088;51.186;17.130;2023-07-20T10:11:36;2.80;;;1.30;;
70532;SDS011;58088;51.186;17.130;2023-07-20T10:14:04;2.30;;;1.30;;
70532;SDS011;58088;51.186;17.130;2023-07-20T10:16:40;2.40;;;1.60;;
70532;SDS011;58088;51.186;17.130;2023-07-20T10:22:25;2.70;;;1.70;;
70532;SDS011;58088;51.186;17.130;2023-07-20T10:24:52;2.10;;;1.30;;
70532;SDS011;58088;51.186;17.130;2023-07-20T10:27:24;3.10;;;1.60;;
70532;SDS011;58088;51.186;17.130;2023-07-20T10:29:51;2.70;;;1.50;;
70532;SDS011;58088;51.186;17.130;2023-07-20T10:32:20;3.30;;;1.60;;
70532;SDS011;58088;51.186;17.130;2023-07-20T10:34:55;4.10;;;1.70;;
70532;SDS011;58088;51.186;17.130;2023-07-20T10:37:51;2.90;;;1.80;;
70532;SDS011;58088;51.186;17.130;2023-07-20T10:40:33;3.20;;;1.70;;
70532;SDS011;58088;51.186;17.130;2023-07-20T10:43:05;2.50;;;1.30;;
70532;SDS011;58088;51.186;17.130;2023-07-20T10:45:39;3.20;;;1.60;;
70532;SDS011;58088;51.186;17.130;2023-07-20T10:48:13;2.90;;;1.50;;
70532;SDS011;58088;51.186;17.130;2023-07-20T10:50:42;3.20;;;1.60;;
70532;SDS011;58088;51.186;17.130;2023-07-20T10:53:18;2.70;;;1.40;;
70532;SDS011;58088;51.186;17.130;2023-07-20T10:55:44;3.30;;;1.40;;
70532;SDS011;58088;51.186;17.130;2023-07-20T10:58:16;2.80;;;1.50;;
70532;SDS011;58088;51.186;17.130;2023-07-20T11:01:00;3.00;;;1.50;;
70532;SDS011;58088;51.186;17.130;2023-07-20T11:03:30;3.50;;;1.90;;
70532;SDS011;58088;51.186;17.130;2023-07-20T11:09:16;3.10;;;1.60;;
70532;SDS011;58088;51.186;17.130;2023-07-20T11:12:12;4.70;;;1.60;;
70532;SDS011;58088;51.186;17.130;2023-07-20T11:14:54;3.20;;;1.60;;
70532;SDS011;58088;51.186;17.130;2023-07-20T11:17:31;4.40;;;1.50;;
70532;SDS011;58088;51.186;17.130;2023-07-20T11:20:00;2.10;;;1.10;;
70532;SDS011;58088;51.186;17.130;2023-07-20T11:22:27;2.50;;;1.30;;
70532;SDS011;58088;51.186;17.130;2023-07-20T11:24:57;2.40;;;1.00;;
70532;SDS011;58088;51.186;17.130;2023-07-20T11:27:24;1.70;;;1.10;;
70532;SDS011;58088;51.186;17.130;2023-07-20T11:29:50;2.50;;;1.20;;
70532;SDS011;58088;51.186;17.130;2023-07-20T11:32:23;2.80;;;1.60;;
70532;SDS011;58088;51.186;17.130;2023-07-20T11:34:50;2.40;;;1.50;;
70532;SDS011;58088;51.186;17.130;2023-07-20T11:37:17;4.60;;;1.50;;
70532;SDS011;58088;51.186;17.130;2023-07-20T11:39:44;2.90;;;1.60;;
70532;SDS011;58088;51.186;17.130;2023-07-20T11:42:11;2.70;;;1.50;;
70532;SDS011;58088;51.186;17.130;2023-07-20T11:44:38;3.20;;;1.30;;
70532;SDS011;58088;51.186;17.130;2023-07-20T11:47:09;2.10;;;1.30;;
70532;SDS011;58088;51.186;17.130;2023-07-20T11:49:38;4.80;;;1.50;;
70532;SDS011;58088;51.186;17.130;2023-07-20T11:52:16;3.30;;;1.60;;
70532;SDS011;58088;51.186;17.130;2023-07-20T11:54:43;3.60;;;1.80;;
70532;SDS011;58088;51.186;17.130;2023-07-20T11:57:18;4.70;;;1.50;;
70532;SDS011;58088;51.186;17.130;2023-07-20T12:00:01;2.80;;;1.60;;
70532;SDS011;58088;51.186;17.130;2023-07-20T12:02:31;2.90;;;1.60;;
70532;SDS011;58088;51.186;17.130;2023-07-20T12:04:58;3.60;;;1.60;;
70532;SDS011;58088;51.186;17.130;2023-07-20T12:07:27;3.70;;;1.70;;
70532;SDS011;58088;51.186;17.130;2023-07-20T12:10:08;3.10;;;1.60;;
70532;SDS011;58088;51.186;17.130;2023-07-20T12:12:40;2.60;;;1.60;;
70532;SDS011;58088;51.186;17.130;2023-07-20T12:17:53;2.50;;;1.80;;
70532;SDS011;58088;51.186;17.130;2023-07-20T12:20:33;4.20;;;2.30;;
70532;SDS011;58088;51.186;17.130;2023-07-20T12:23:07;3.60;;;2.00;;
70532;SDS011;58088;51.186;17.130;2023-07-20T12:25:45;3.20;;;2.00;;
70532;SDS011;58088;51.186;17.130;2023-07-20T12:28:17;4.90;;;2.10;;
70532;SDS011;58088;51.186;17.130;2023-07-20T12:30:46;3.10;;;2.10;;
70532;SDS011;58088;51.186;17.130;2023-07-20T12:33:17;4.70;;;2.10;;
70532;SDS011;58088;51.186;17.130;2023-07-20T12:35:43;3.80;;;2.30;;
70532;SDS011;58088;51.186;17.130;2023-07-20T12:38:11;3.80;;;2.40;;
70532;SDS011;58088;51.186;17.130;2023-07-20T12:40:37;5.20;;;2.50;;
70532;SDS011;58088;51.186;17.130;2023-07-20T12:43:03;4.40;;;2.70;;
70532;SDS011;58088;51.186;17.130;2023-07-20T12:45:30;4.10;;;2.60;;
70532;SDS011;58088;51.186;17.130;2023-07-20T12:47:57;3.60;;;2.30;;
70532;SDS011;58088;51.186;17.130;2023-07-20T12:50:23;4.50;;;2.40;;
70532;SDS011;58088;51.186;17.130;2023-07-20T12:52:49;4.00;;;2.30;;
70532;SDS011;58088;51.186;17.130;2023-07-20T12:55:15;4.30;;;2.90;;
70532;SDS011;58088;51.186;17.130;2023-07-20T12:57:42;3.90;;;2.30;;
70532;SDS011;58088;51.186;17.130;2023-07-20T13:00:10;4.00;;;2.70;;
70532;SDS011;58088;51.186;17.130;2023-07-20T13:02:38;4.30;;;2.50;;
70532;SDS011;58088;51.186;17.130;2023-07-20T13:05:05;3.60;;;2.30;;
70532;SDS011;58088;51.186;17.130;2023-07-20T13:07:38;3.60;;;2.30;;
70532;SDS011;58088;51.186;17.130;2023-07-20T13:10:06;4.30;;;1.90;;
70532;SDS011;58088;51.186;17.130;2023-07-20T13:12:33;2.50;;;1.60;;
70532;SDS011;58088;51.186;17.130;2023-07-20T13:15:06;2.90;;;1.60;;
70532;SDS011;58088;51.186;17.130;2023-07-20T13:17:37;3.20;;;1.30;;
70532;SDS011;58088;51.186;17.130;2023-07-20T13:20:06;2.60;;;1.60;;
70532;SDS011;58088;51.186;17.130;2023-07-20T13:22:40;2.80;;;1.40;;
70532;SDS011;58088;51.186;17.130;2023-07-20T13:25:07;4.60;;;1.60;;
70532;SDS011;58088;51.186;17.130;2023-07-20T13:27:35;2.70;;;1.50;;
70532;SDS011;58088;51.186;17.130;2023-07-20T13:30:02;3.30;;;1.50;;
70532;SDS011;58088;51.186;17.130;2023-07-20T13:32:33;2.30;;;1.50;;
70532;SDS011;58088;51.186;17.130;2023-07-20T13:35:00;2.50;;;1.60;;
70532;SDS011;58088;51.186;17.130;2023-07-20T13:37:26;3.10;;;1.50;;
70532;SDS011;58088;51.186;17.130;2023-07-20T13:39:54;3.50;;;1.70;;
70532;SDS011;58088;51.186;17.130;2023-07-20T13:42:21;2.70;;;1.60;;
70532;SDS011;58088;51.186;17.130;2023-07-20T13:44:48;4.20;;;1.80;;
70532;SDS011;58088;51.186;17.130;2023-07-20T13:47:14;2.70;;;2.00;;
70532;SDS011;58088;51.186;17.130;2023-07-20T13:49:40;3.50;;;1.90;;
70532;SDS011;58088;51.186;17.130;2023-07-20T13:52:07;3.10;;;1.80;;
70532;SDS011;58088;51.186;17.130;2023-07-20T13:54:34;2.80;;;1.70;;
70532;SDS011;58088;51.186;17.130;2023-07-20T13:57:00;2.40;;;1.60;;
70532;SDS011;58088;51.186;17.130;2023-07-20T13:59:26;2.70;;;1.70;;
70532;SDS011;58088;51.186;17.130;2023-07-20T14:01:52;2.60;;;1.60;;
70532;SDS011;58088;51.186;17.130;2023-07-20T14:04:19;3.90;;;1.40;;
70532;SDS011;58088;51.186;17.130;2023-07-20T14:06:45;3.70;;;1.80;;
70532;SDS011;58088;51.186;17.130;2023-07-20T14:09:11;2.70;;;1.40;;
70532;SDS011;58088;51.186;17.130;2023-07-20T14:11:38;2.40;;;1.20;;
70532;SDS011;58088;51.186;17.130;2023-07-20T14:14:04;2.70;;;1.50;;
70532;SDS011;58088;51.186;17.130;2023-07-20T14:16:30;2.90;;;1.60;;
70532;SDS011;58088;51.186;17.130;2023-07-20T14:18:58;3.70;;;1.90;;
70532;SDS011;58088;51.186;17.130;2023-07-20T14:21:25;3.90;;;2.50;;
70532;SDS011;58088;51.186;17.130;2023-07-20T14:23:51;3.10;;;1.80;;
70532;SDS011;58088;51.186;17.130;2023-07-20T14:26:21;3.60;;;1.80;;
70532;SDS011;58088;51.186;17.130;2023-07-20T14:28:47;2.60;;;1.70;;
70532;SDS011;58088;51.186;17.130;2023-07-20T14:31:14;2.10;;;1.50;;
70532;SDS011;58088;51.186;17.130;2023-07-20T14:33:40;4.40;;;1.90;;
70532;SDS011;58088;51.186;17.130;2023-07-20T14:36:07;3.10;;;1.50;;
70532;SDS011;58088;51.186;17.130;2023-07-20T14:38:34;3.20;;;1.70;;
70532;SDS011;58088;51.186;17.130;2023-07-20T14:41:01;3.10;;;1.70;;
70532;SDS011;58088;51.186;17.130;2023-07-20T14:43:28;3.10;;;1.70;;
70532;SDS011;58088;51.186;17.130;2023-07-20T14:45:55;3.40;;;2.10;;
70532;SDS011;58088;51.186;17.130;2023-07-20T14:48:21;3.50;;;1.70;;
70532;SDS011;58088;51.186;17.130;2023-07-20T14:50:47;2.60;;;1.70;;
70532;SDS011;58088;51.186;17.130;2023-07-20T14:53:13;5.70;;;1.80;;
70532;SDS011;58088;51.186;17.130;2023-07-20T14:55:41;3.40;;;1.50;;
70532;SDS011;58088;51.186;17.130;2023-07-20T14:58:07;3.60;;;2.20;;
70532;SDS011;58088;51.186;17.130;2023-07-20T15:00:34;3.50;;;1.80;;